sensor_id;sensor_type;location;lat;lon;timestamp;P1;durP1;ratioP1;P2;durP2;ratioP2
23250;SDS011;11794;49.730;10.088;2023-07-20T00:00:52;5.97;;;2.47;;
23250;SDS011;11794;49.730;10.088;2023-07-20T00:03:18;6.82;;;2.17;;
23250;SDS011;11794;49.730;10.088;2023-07-20T00:05:48;5.60;;;2.08;;
23250;SDS011;11794;49.730;10.088;2023-07-20T00:08:14;7.10;;;2.42;;
23250;SDS011;11794;49.730;10.088;2023-07-20T00:10:40;8.57;;;2.53;;
23250;SDS011;11794;49.730;10.088;2023-07-20T00:13:06;6.47;;;2.33;;
23250;SDS011;11794;49.730;10.088;2023-07-20T00:15:32;10.93;;;2.72;;
23250;SDS011;11794;49.730;10.088;2023-07-20T00:17:57;8.30;;;2.70;;
23250;SDS011;11794;49.730;10.088;2023-07-20T00:20:23;11.10;;;2.50;;
23250;SDS011;11794;49.730;10.088;2023-07-20T00:22:50;9.23;;;2.63;;
23250;SDS011;11794;49.730;10.088;2023-07-20T00:25:19;6.90;;;2.60;;
23250;SDS011;11794;49.730;10.088;2023-07-20T00:27:45;7.80;;;2.17;;
23250;SDS011;11794;49.730;10.088;2023-07-20T00:30:11;8.57;;;2.30;;
23250;SDS011;11794;49.730;10.088;2023-07-20T00:32:37;6.88;;;2.42;;
23250;SDS011;11794;49.730;10.088;2023-07-20T00:35:03;8.75;;;2.75;;
23250;SDS011;11794;49.730;10.088;2023-07-20T00:37:28;6.28;;;2.63;;
23250;SDS011;11794;49.730;10.088;2023-07-20T00:39:54;10.50;;;2.80;;
23250;SDS011;11794;49.730;10.088;2023-07-20T00:42:20;7.70;;;2.28;;
23250;SDS011;11794;49.730;10.088;2023-07-20T00:44:45;7.63;;;2.47;;
23250;SDS011;11794;49.730;10.088;2023-07-20T00:47:11;6.73;;;2.60;;
23250;SDS011;11794;49.730;10.088;2023-07-20T00:49:37;8.15;;;2.65;;
23250;SDS011;11794;49.730;10.088;2023-07-20T00:52:03;7.25;;;2.50;;
23250;SDS011;11794;49.730;10.088;2023-07-20T00:54:31;9.73;;;2.40;;
23250;SDS011;11794;49.730;10.088;2023-07-20T00:56:57;10.77;;;2.33;;
23250;SDS011;11794;49.730;10.088;2023-07-20T00:59:25;9.07;;;2.40;;
23250;SDS011;11794;49.730;10.088;2023-07-20T01:01:51;10.45;;;2.50;;
23250;SDS011;11794;49.730;10.088;2023-07-20T01:04:16;6.35;;;2.30;;
23250;SDS011;11794;49.730;10.088;2023-07-20T01:06:45;9.33;;;2.70;;
23250;SDS011;11794;49.730;10.088;2023-07-20T01:09:31;5.67;;;2.33;;
23250;SDS011;11794;49.730;10.088;2023-07-20T01:12:08;5.75;;;2.25;;
23250;SDS011;11794;49.730;10.088;2023-07-20T01:14:38;7.65;;;2.75;;
23250;SDS011;11794;49.730;10.088;2023-07-20T01:17:04;8.45;;;2.50;;
23250;SDS011;11794;49.730;10.088;2023-07-20T01:19:29;6.17;;;2.30;;
23250;SDS011;11794;49.730;10.088;2023-07-20T01:24:44;7.72;;;2.72;;
23250;SDS011;11794;49.730;10.088;2023-07-20T01:33:29;8.23;;;2.60;;
23250;SDS011;11794;49.730;10.088;2023-07-20T01:35:58;6.68;;;2.53;;
23250;SDS011;11794;49.730;10.088;2023-07-20T01:38:25;7.33;;;2.30;;
23250;SDS011;11794;49.730;10.088;2023-07-20T01:40:51;7.13;;;2.30;;
23250;SDS011;11794;49.730;10.088;2023-07-20T01:43:17;6.32;;;2.10;;
23250;SDS011;11794;49.730;10.088;2023-07-20T01:45:43;6.95;;;2.15;;
23250;SDS011;11794;49.730;10.088;2023-07-20T01:48:09;5.80;;;2.40;;
23250;SDS011;11794;49.730;10.088;2023-07-20T01:50:35;6.73;;;2.40;;
23250;SDS011;11794;49.730;10.088;2023-07-20T01:53:01;7.13;;;2.22;;
23250;SDS011;11794;49.730;10.088;2023-07-20T01:55:26;5.47;;;2.20;;
23250;SDS011;11794;49.730;10.088;2023-07-20T01:57:52;7.95;;;2.20;;
23250;SDS011;11794;49.730;10.088;2023-07-20T02:00:18;5.80;;;2.15;;
23250;SDS011;11794;49.730;10.088;2023-07-20T02:02:46;5.43;;;2.00;;
23250;SDS011;11794;49.730;10.088;2023-07-20T02:05:12;6.70;;;2.30;;
23250;SDS011;11794;49.730;10.088;2023-07-20T02:07:37;7.13;;;2.35;;
23250;SDS011;11794;49.730;10.088;2023-07-20T02:10:03;6.77;;;2.30;;
23250;SDS011;11794;49.730;10.088;2023-07-20T02:12:29;6.68;;;2.30;;
23250;SDS011;11794;49.730;10.088;2023-07-20T02:14:54;5.60;;;2.07;;
23250;SDS011;11794;49.730;10.088;2023-07-20T02:17:20;5.40;;;1.98;;
23250;SDS011;11794;49.730;10.088;2023-07-20T02:19:46;6.60;;;2.07;;
23250;SDS011;11794;49.730;10.088;2023-07-20T02:22:14;7.43;;;2.30;;
23250;SDS011;11794;49.730;10.088;2023-07-20T02:24:40;6.90;;;2.50;;
23250;SDS011;11794;49.730;10.088;2023-07-20T02:27:05;6.00;;;2.43;;
23250;SDS011;11794;49.730;10.088;2023-07-20T02:29:31;6.00;;;2.22;;
23250;SDS011;11794;49.730;10.088;2023-07-20T02:31:57;7.50;;;2.33;;
23250;SDS011;11794;49.730;10.088;2023-07-20T02:34:22;8.02;;;2.60;;
23250;SDS011;11794;49.730;10.088;2023-07-20T02:36:48;6.13;;;2.40;;
23250;SDS011;11794;49.730;10.088;2023-07-20T02:39:14;6.40;;;2.30;;
23250;SDS011;11794;49.730;10.088;2023-07-20T02:41:39;6.67;;;2.30;;
23250;SDS011;11794;49.730;10.088;2023-07-20T02:44:06;6.50;;;2.30;;
23250;SDS011;11794;49.730;10.088;2023-07-20T02:46:32;9.70;;;2.33;;
23250;SDS011;11794;49.730;10.088;2023-07-20T02:48:57;8.63;;;2.38;;
23250;SDS011;11794;49.730;10.088;2023-07-20T02:51:23;8.50;;;2.40;;
23250;SDS011;11794;49.730;10.088;2023-07-20T02:53:48;6.82;;;2.42;;
23250;SDS011;11794;49.730;10.088;2023-07-20T02:56:14;9.10;;;2.53;;
23250;SDS011;11794;49.730;10.088;2023-07-20T02:58:41;9.32;;;2.40;;
23250;SDS011;11794;49.730;10.088;2023-07-20T03:01:10;7.68;;;2.25;;
23250;SDS011;11794;49.730;10.088;2023-07-20T03:03:37;5.60;;;2.10;;
23250;SDS011;11794;49.730;10.088;2023-07-20T03:06:03;6.72;;;2.45;;
23250;SDS011;11794;49.730;10.088;2023-07-20T03:08:29;7.97;;;2.37;;
23250;SDS011;11794;49.730;10.088;2023-07-20T03:10:55;7.82;;;2.55;;
23250;SDS011;11794;49.730;10.088;2023-07-20T03:13:20;7.27;;;2.20;;
23250;SDS011;11794;49.730;10.088;2023-07-20T03:15:46;7.88;;;2.25;;
23250;SDS011;11794;49.730;10.088;2023-07-20T03:18:11;6.97;;;2.60;;
23250;SDS011;11794;49.730;10.088;2023-07-20T03:20:37;8.93;;;2.87;;
23250;SDS011;11794;49.730;10.088;2023-07-20T03:23:03;6.55;;;2.13;;
23250;SDS011;11794;49.730;10.088;2023-07-20T03:25:29;8.30;;;2.60;;
23250;SDS011;11794;49.730;10.088;2023-07-20T03:27:54;5.90;;;2.10;;
23250;SDS011;11794;49.730;10.088;2023-07-20T03:30:20;6.07;;;1.83;;
23250;SDS011;11794;49.730;10.088;2023-07-20T03:32:45;7.10;;;2.25;;
23250;SDS011;11794;49.730;10.088;2023-07-20T03:35:11;9.57;;;2.20;;
23250;SDS011;11794;49.730;10.088;2023-07-20T03:37:36;6.50;;;2.00;;
23250;SDS011;11794;49.730;10.088;2023-07-20T03:40:03;7.23;;;1.80;;
23250;SDS011;11794;49.730;10.088;2023-07-20T03:42:29;5.95;;;1.95;;
23250;SDS011;11794;49.730;10.088;2023-07-20T03:44:55;5.82;;;2.00;;
23250;SDS011;11794;49.730;10.088;2023-07-20T03:47:21;8.83;;;2.00;;
23250;SDS011;11794;49.730;10.088;2023-07-20T03:49:47;8.02;;;2.22;;
23250;SDS011;11794;49.730;10.088;2023-07-20T03:52:12;5.03;;;1.60;;
23250;SDS011;11794;49.730;10.088;2023-07-20T03:54:38;6.77;;;1.70;;
23250;SDS011;11794;49.730;10.088;2023-07-20T03:57:03;7.30;;;2.03;;
23250;SDS011;11794;49.730;10.088;2023-07-20T03:59:29;8.10;;;2.22;;
23250;SDS011;11794;49.730;10.088;2023-07-20T04:01:54;5.93;;;1.90;;
23250;SDS011;11794;49.730;10.088;2023-07-20T04:04:20;4.90;;;1.67;;
23250;SDS011;11794;49.730;10.088;2023-07-20T04:06:45;9.10;;;1.85;;
23250;SDS011;11794;49.730;10.088;2023-07-20T04:09:11;7.83;;;1.90;;
23250;SDS011;11794;49.730;10.088;2023-07-20T04:11:37;7.70;;;2.53;;
23250;SDS011;11794;49.730;10.088;2023-07-20T04:14:03;5.93;;;1.83;;
23250;SDS011;11794;49.730;10.088;2023-07-20T04:16:30;6.57;;;2.05;;
23250;SDS011;11794;49.730;10.088;2023-07-20T04:18:56;6.47;;;1.90;;
23250;SDS011;11794;49.730;10.088;2023-07-20T04:21:22;7.70;;;1.90;;
23250;SDS011;11794;49.730;10.088;2023-07-20T04:23:47;8.00;;;1.77;;
23250;SDS011;11794;49.730;10.088;2023-07-20T04:26:13;7.17;;;1.60;;
23250;SDS011;11794;49.730;10.088;2023-07-20T04:28:39;6.00;;;1.80;;
23250;SDS011;11794;49.730;10.088;2023-07-20T04:31:10;7.50;;;1.80;;
23250;SDS011;11794;49.730;10.088;2023-07-20T04:33:40;6.70;;;1.83;;
23250;SDS011;11794;49.730;10.088;2023-07-20T04:36:06;6.50;;;2.00;;
23250;SDS011;11794;49.730;10.088;2023-07-20T04:38:32;9.13;;;2.10;;
23250;SDS011;11794;49.730;10.088;2023-07-20T04:40:58;14.75;;;2.42;;
23250;SDS011;11794;49.730;10.088;2023-07-20T04:43:23;6.20;;;1.60;;
23250;SDS011;11794;49.730;10.088;2023-07-20T04:45:49;5.90;;;1.67;;
23250;SDS011;11794;49.730;10.088;2023-07-20T04:48:16;6.95;;;1.80;;
23250;SDS011;11794;49.730;10.088;2023-07-20T04:50:42;6.50;;;1.80;;
23250;SDS011;11794;49.730;10.088;2023-07-20T04:53:09;7.18;;;1.80;;
23250;SDS011;11794;49.730;10.088;2023-07-20T04:55:36;5.88;;;1.73;;
23250;SDS011;11794;49.730;10.088;2023-07-20T04:58:02;5.27;;;1.60;;
23250;SDS011;11794;49.730;10.088;2023-07-20T05:00:28;6.63;;;1.60;;
23250;SDS011;11794;49.730;10.088;2023-07-20T05:02:54;8.75;;;2.17;;
23250;SDS011;11794;49.730;10.088;2023-07-20T05:05:20;7.63;;;1.75;;
23250;SDS011;11794;49.730;10.088;2023-07-20T05:07:46;6.67;;;1.80;;
23250;SDS011;11794;49.730;10.088;2023-07-20T05:10:11;5.72;;;1.77;;
23250;SDS011;11794;49.730;10.088;2023-07-20T05:12:37;5.40;;;1.80;;
23250;SDS011;11794;49.730;10.088;2023-07-20T05:15:03;6.83;;;1.70;;
23250;SDS011;11794;49.730;10.088;2023-07-20T05:17:29;7.18;;;1.70;;
23250;SDS011;11794;49.730;10.088;2023-07-20T05:19:54;6.25;;;1.83;;
23250;SDS011;11794;49.730;10.088;2023-07-20T05:22:20;5.27;;;1.50;;
23250;SDS011;11794;49.730;10.088;2023-07-20T05:24:45;7.85;;;1.80;;
23250;SDS011;11794;49.730;10.088;2023-07-20T05:27:11;5.40;;;1.80;;
23250;SDS011;11794;49.730;10.088;2023-07-20T05:29:37;14.88;;;1.80;;
23250;SDS011;11794;49.730;10.088;2023-07-20T05:32:02;5.40;;;1.60;;
23250;SDS011;11794;49.730;10.088;2023-07-20T05:34:28;7.18;;;2.10;;
23250;SDS011;11794;49.730;10.088;2023-07-20T05:36:54;5.93;;;1.80;;
23250;SDS011;11794;49.730;10.088;2023-07-20T05:39:20;6.38;;;1.77;;
23250;SDS011;11794;49.730;10.088;2023-07-20T05:41:45;6.40;;;1.73;;
23250;SDS011;11794;49.730;10.088;2023-07-20T05:44:11;7.28;;;1.70;;
23250;SDS011;11794;49.730;10.088;2023-07-20T05:46:37;7.10;;;1.80;;
23250;SDS011;11794;49.730;10.088;2023-07-20T05:49:02;5.38;;;1.60;;
23250;SDS011;11794;49.730;10.088;2023-07-20T05:51:28;7.60;;;1.97;;
23250;SDS011;11794;49.730;10.088;2023-07-20T05:53:53;11.20;;;2.03;;
23250;SDS011;11794;49.730;10.088;2023-07-20T05:56:19;6.10;;;1.40;;
23250;SDS011;11794;49.730;10.088;2023-07-20T05:58:45;6.78;;;1.90;;
23250;SDS011;11794;49.730;10.088;2023-07-20T06:01:10;8.10;;;1.73;;
23250;SDS011;11794;49.730;10.088;2023-07-20T06:03:36;7.47;;;1.90;;
23250;SDS011;11794;49.730;10.088;2023-07-20T06:06:02;7.97;;;1.85;;
23250;SDS011;11794;49.730;10.088;2023-07-20T06:08:29;5.72;;;1.83;;
23250;SDS011;11794;49.730;10.088;2023-07-20T06:10:55;7.93;;;1.90;;
23250;SDS011;11794;49.730;10.088;2023-07-20T06:13:21;6.53;;;1.80;;
23250;SDS011;11794;49.730;10.088;2023-07-20T06:15:47;5.17;;;1.47;;
23250;SDS011;11794;49.730;10.088;2023-07-20T06:18:13;5.20;;;1.30;;
23250;SDS011;11794;49.730;10.088;2023-07-20T06:20:39;9.15;;;1.70;;
23250;SDS011;11794;49.730;10.088;2023-07-20T06:23:04;6.97;;;1.47;;
23250;SDS011;11794;49.730;10.088;2023-07-20T06:25:30;6.30;;;1.70;;
23250;SDS011;11794;49.730;10.088;2023-07-20T06:27:56;7.63;;;1.60;;
23250;SDS011;11794;49.730;10.088;2023-07-20T06:30:22;6.80;;;1.58;;
23250;SDS011;11794;49.730;10.088;2023-07-20T06:32:48;5.70;;;1.90;;
23250;SDS011;11794;49.730;10.088;2023-07-20T06:35:14;8.05;;;1.58;;
23250;SDS011;11794;49.730;10.088;2023-07-20T06:37:40;8.80;;;1.37;;
23250;SDS011;11794;49.730;10.088;2023-07-20T06:40:06;10.50;;;2.00;;
23250;SDS011;11794;49.730;10.088;2023-07-20T06:42:34;7.10;;;1.48;;
23250;SDS011;11794;49.730;10.088;2023-07-20T06:44:59;6.72;;;1.60;;
23250;SDS011;11794;49.730;10.088;2023-07-20T06:47:25;6.57;;;1.67;;
23250;SDS011;11794;49.730;10.088;2023-07-20T06:49:51;8.48;;;1.30;;
23250;SDS011;11794;49.730;10.088;2023-07-20T06:52:16;7.17;;;1.60;;
23250;SDS011;11794;49.730;10.088;2023-07-20T06:54:42;6.72;;;1.52;;
23250;SDS011;11794;49.730;10.088;2023-07-20T06:57:07;5.50;;;1.43;;
23250;SDS011;11794;49.730;10.088;2023-07-20T06:59:33;9.97;;;1.53;;
23250;SDS011;11794;49.730;10.088;2023-07-20T07:01:58;5.50;;;1.50;;
23250;SDS011;11794;49.730;10.088;2023-07-20T07:04:24;8.20;;;1.90;;
23250;SDS011;11794;49.730;10.088;2023-07-20T07:06:50;7.20;;;1.38;;
23250;SDS011;11794;49.730;10.088;2023-07-20T07:09:15;9.53;;;1.80;;
23250;SDS011;11794;49.730;10.088;2023-07-20T07:11:41;6.57;;;1.60;;
23250;SDS011;11794;49.730;10.088;2023-07-20T07:14:06;6.57;;;1.50;;
23250;SDS011;11794;49.730;10.088;2023-07-20T07:16:32;6.47;;;1.53;;
23250;SDS011;11794;49.730;10.088;2023-07-20T07:18:57;6.35;;;1.60;;
23250;SDS011;11794;49.730;10.088;2023-07-20T07:21:23;7.78;;;1.90;;
23250;SDS011;11794;49.730;10.088;2023-07-20T07:23:50;8.13;;;1.90;;
23250;SDS011;11794;49.730;10.088;2023-07-20T07:26:18;6.82;;;1.60;;
23250;SDS011;11794;49.730;10.088;2023-07-20T07:28:44;6.78;;;1.95;;
23250;SDS011;11794;49.730;10.088;2023-07-20T07:31:09;6.13;;;1.23;;
23250;SDS011;11794;49.730;10.088;2023-07-20T07:33:35;7.37;;;1.87;;
23250;SDS011;11794;49.730;10.088;2023-07-20T07:36:00;5.72;;;1.70;;
23250;SDS011;11794;49.730;10.088;2023-07-20T07:38:26;7.33;;;1.60;;
23250;SDS011;11794;49.730;10.088;2023-07-20T07:40:52;6.90;;;1.53;;
23250;SDS011;11794;49.730;10.088;2023-07-20T07:43:17;10.18;;;1.80;;
23250;SDS011;11794;49.730;10.088;2023-07-20T07:45:43;7.87;;;1.60;;
23250;SDS011;11794;49.730;10.088;2023-07-20T07:48:08;4.90;;;1.42;;
23250;SDS011;11794;49.730;10.088;2023-07-20T07:50:37;5.90;;;1.50;;
23250;SDS011;11794;49.730;10.088;2023-07-20T07:53:05;5.65;;;1.42;;
23250;SDS011;11794;49.730;10.088;2023-07-20T07:55:30;6.10;;;1.60;;
23250;SDS011;11794;49.730;10.088;2023-07-20T07:57:56;5.18;;;1.50;;
23250;SDS011;11794;49.730;10.088;2023-07-20T08:00:22;5.90;;;1.30;;
23250;SDS011;11794;49.730;10.088;2023-07-20T08:02:50;6.93;;;1.27;;
23250;SDS011;11794;49.730;10.088;2023-07-20T08:05:15;8.55;;;1.30;;
23250;SDS011;11794;49.730;10.088;2023-07-20T08:07:41;5.13;;;1.30;;
23250;SDS011;11794;49.730;10.088;2023-07-20T08:10:08;5.47;;;1.37;;
23250;SDS011;11794;49.730;10.088;2023-07-20T08:12:34;4.38;;;1.30;;
23250;SDS011;11794;49.730;10.088;2023-07-20T08:14:59;6.18;;;1.33;;
23250;SDS011;11794;49.730;10.088;2023-07-20T08:17:25;7.50;;;1.50;;
23250;SDS011;11794;49.730;10.088;2023-07-20T08:19:50;6.20;;;1.63;;
23250;SDS011;11794;49.730;10.088;2023-07-20T08:22:16;5.57;;;1.48;;
23250;SDS011;11794;49.730;10.088;2023-07-20T08:24:42;4.23;;;1.10;;
23250;SDS011;11794;49.730;10.088;2023-07-20T08:27:08;5.68;;;1.10;;
23250;SDS011;11794;49.730;10.088;2023-07-20T08:29:34;7.32;;;1.52;;
23250;SDS011;11794;49.730;10.088;2023-07-20T08:32:00;5.55;;;1.08;;
23250;SDS011;11794;49.730;10.088;2023-07-20T08:34:26;5.50;;;1.40;;
23250;SDS011;11794;49.730;10.088;2023-07-20T08:36:51;5.28;;;1.38;;
23250;SDS011;11794;49.730;10.088;2023-07-20T08:39:17;5.70;;;1.23;;
23250;SDS011;11794;49.730;10.088;2023-07-20T08:41:43;5.20;;;1.35;;
23250;SDS011;11794;49.730;10.088;2023-07-20T08:44:09;4.17;;;1.50;;
23250;SDS011;11794;49.730;10.088;2023-07-20T08:46:36;5.00;;;1.23;;
23250;SDS011;11794;49.730;10.088;2023-07-20T08:49:03;6.57;;;1.20;;
23250;SDS011;11794;49.730;10.088;2023-07-20T08:51:30;6.80;;;0.98;;
23250;SDS011;11794;49.730;10.088;2023-07-20T08:53:55;7.28;;;1.30;;
23250;SDS011;11794;49.730;10.088;2023-07-20T08:56:21;4.07;;;0.93;;
23250;SDS011;11794;49.730;10.088;2023-07-20T08:58:51;3.28;;;0.80;;
23250;SDS011;11794;49.730;10.088;2023-07-20T09:01:18;5.28;;;1.10;;
23250;SDS011;11794;49.730;10.088;2023-07-20T09:03:44;3.92;;;1.00;;
23250;SDS011;11794;49.730;10.088;2023-07-20T09:06:11;4.65;;;1.30;;
23250;SDS011;11794;49.730;10.088;2023-07-20T09:08:38;5.03;;;1.20;;
23250;SDS011;11794;49.730;10.088;2023-07-20T09:11:04;7.00;;;1.48;;
23250;SDS011;11794;49.730;10.088;2023-07-20T09:13:30;6.75;;;1.40;;
23250;SDS011;11794;49.730;10.088;2023-07-20T09:15:57;5.30;;;1.00;;
23250;SDS011;11794;49.730;10.088;2023-07-20T09:18:27;5.07;;;1.40;;
23250;SDS011;11794;49.730;10.088;2023-07-20T09:20:57;5.45;;;1.05;;
23250;SDS011;11794;49.730;10.088;2023-07-20T09:26:00;4.32;;;1.00;;
23250;SDS011;11794;49.730;10.088;2023-07-20T09:28:40;3.97;;;1.15;;
23250;SDS011;11794;49.730;10.088;2023-07-20T09:31:15;5.25;;;1.30;;
23250;SDS011;11794;49.730;10.088;2023-07-20T09:33:42;5.03;;;1.00;;
23250;SDS011;11794;49.730;10.088;2023-07-20T09:36:09;4.97;;;1.37;;
23250;SDS011;11794;49.730;10.088;2023-07-20T09:38:36;5.28;;;1.30;;
23250;SDS011;11794;49.730;10.088;2023-07-20T09:41:02;6.07;;;1.20;;
23250;SDS011;11794;49.730;10.088;2023-07-20T09:43:30;5.00;;;1.30;;
23250;SDS011;11794;49.730;10.088;2023-07-20T09:45:57;4.70;;;1.27;;
23250;SDS011;11794;49.730;10.088;2023-07-20T09:48:24;5.07;;;1.27;;
23250;SDS011;11794;49.730;10.088;2023-07-20T09:50:51;5.30;;;1.30;;
23250;SDS011;11794;49.730;10.088;2023-07-20T09:53:17;4.20;;;1.40;;
23250;SDS011;11794;49.730;10.088;2023-07-20T09:55:47;4.80;;;1.20;;
23250;SDS011;11794;49.730;10.088;2023-07-20T09:58:13;4.68;;;1.38;;
23250;SDS011;11794;49.730;10.088;2023-07-20T10:00:40;3.58;;;1.20;;
23250;SDS011;11794;49.730;10.088;2023-07-20T10:03:16;5.05;;;1.40;;
23250;SDS011;11794;49.730;10.088;2023-07-20T10:05:52;5.75;;;1.50;;
23250;SDS011;11794;49.730;10.088;2023-07-20T10:08:23;3.87;;;1.30;;
23250;SDS011;11794;49.730;10.088;2023-07-20T10:10:50;5.80;;;1.10;;
23250;SDS011;11794;49.730;10.088;2023-07-20T10:13:21;3.88;;;1.15;;
23250;SDS011;11794;49.730;10.088;2023-07-20T10:15:50;3.90;;;1.10;;
23250;SDS011;11794;49.730;10.088;2023-07-20T10:21:13;4.00;;;1.23;;
23250;SDS011;11794;49.730;10.088;2023-07-20T10:23:41;3.70;;;1.10;;
23250;SDS011;11794;49.730;10.088;2023-07-20T10:26:07;4.40;;;1.03;;
23250;SDS011;11794;49.730;10.088;2023-07-20T10:28:34;4.60;;;1.38;;
23250;SDS011;11794;49.730;10.088;2023-07-20T10:31:00;4.20;;;1.40;;
23250;SDS011;11794;49.730;10.088;2023-07-20T10:33:26;4.38;;;1.58;;
23250;SDS011;11794;49.730;10.088;2023-07-20T10:35:52;4.70;;;1.20;;
23250;SDS011;11794;49.730;10.088;2023-07-20T10:44:02;5.53;;;1.50;;
23250;SDS011;11794;49.730;10.088;2023-07-20T10:46:33;4.13;;;1.30;;
23250;SDS011;11794;49.730;10.088;2023-07-20T10:49:07;4.97;;;1.35;;
23250;SDS011;11794;49.730;10.088;2023-07-20T10:51:44;3.33;;;1.10;;
23250;SDS011;11794;49.730;10.088;2023-07-20T10:56:42;3.50;;;1.17;;
23250;SDS011;11794;49.730;10.088;2023-07-20T11:01:50;4.15;;;1.55;;
23250;SDS011;11794;49.730;10.088;2023-07-20T11:04:21;3.78;;;1.30;;
23250;SDS011;11794;49.730;10.088;2023-07-20T11:07:04;6.85;;;1.40;;
23250;SDS011;11794;49.730;10.088;2023-07-20T11:09:33;6.30;;;1.50;;
23250;SDS011;11794;49.730;10.088;2023-07-20T11:14:55;3.87;;;1.20;;
23250;SDS011;11794;49.730;10.088;2023-07-20T11:17:28;6.28;;;1.40;;
23250;SDS011;11794;49.730;10.088;2023-07-20T11:19:55;4.28;;;1.33;;
23250;SDS011;11794;49.730;10.088;2023-07-20T11:22:21;5.07;;;1.30;;
23250;SDS011;11794;49.730;10.088;2023-07-20T11:24:47;6.15;;;1.20;;
23250;SDS011;11794;49.730;10.088;2023-07-20T11:27:14;3.30;;;0.90;;
23250;SDS011;11794;49.730;10.088;2023-07-20T11:29:40;3.90;;;1.08;;
23250;SDS011;11794;49.730;10.088;2023-07-20T11:32:06;5.22;;;1.08;;
23250;SDS011;11794;49.730;10.088;2023-07-20T11:34:32;5.10;;;1.55;;
23250;SDS011;11794;49.730;10.088;2023-07-20T11:36:59;4.10;;;1.35;;
23250;SDS011;11794;49.730;10.088;2023-07-20T11:39:24;3.30;;;1.10;;
23250;SDS011;11794;49.730;10.088;2023-07-20T11:41:54;4.88;;;1.48;;
23250;SDS011;11794;49.730;10.088;2023-07-20T11:44:21;3.40;;;1.20;;
23250;SDS011;11794;49.730;10.088;2023-07-20T11:47:03;5.07;;;1.50;;
23250;SDS011;11794;49.730;10.088;2023-07-20T11:49:30;4.07;;;1.50;;
23250;SDS011;11794;49.730;10.088;2023-07-20T11:52:00;4.03;;;1.40;;
23250;SDS011;11794;49.730;10.088;2023-07-20T11:54:26;5.70;;;1.27;;
23250;SDS011;11794;49.730;10.088;2023-07-20T11:56:55;4.10;;;1.10;;
23250;SDS011;11794;49.730;10.088;2023-07-20T11:59:21;4.93;;;1.20;;
23250;SDS011;11794;49.730;10.088;2023-07-20T12:01:47;4.00;;;1.25;;
23250;SDS011;11794;49.730;10.088;2023-07-20T12:04:12;4.43;;;1.20;;
23250;SDS011;11794;49.730;10.088;2023-07-20T12:06:38;3.83;;;1.42;;
23250;SDS011;11794;49.730;10.088;2023-07-20T12:09:03;6.27;;;1.47;;
23250;SDS011;11794;49.730;10.088;2023-07-20T12:11:36;4.28;;;1.65;;
23250;SDS011;11794;49.730;10.088;2023-07-20T12:14:03;4.80;;;1.47;;
23250;SDS011;11794;49.730;10.088;2023-07-20T12:16:29;3.23;;;1.20;;
23250;SDS011;11794;49.730;10.088;2023-07-20T12:19:02;3.95;;;1.45;;
23250;SDS011;11794;49.730;10.088;2023-07-20T12:21:33;5.10;;;1.35;;
23250;SDS011;11794;49.730;10.088;2023-07-20T12:24:01;3.80;;;1.33;;
23250;SDS011;11794;49.730;10.088;2023-07-20T12:26:28;4.53;;;1.45;;
23250;SDS011;11794;49.730;10.088;2023-07-20T12:28:55;3.85;;;1.00;;
23250;SDS011;11794;49.730;10.088;2023-07-20T12:31:20;3.13;;;1.00;;
23250;SDS011;11794;49.730;10.088;2023-07-20T12:33:47;3.38;;;0.90;;
23250;SDS011;11794;49.730;10.088;2023-07-20T12:36:13;5.65;;;1.27;;
23250;SDS011;11794;49.730;10.088;2023-07-20T12:38:39;4.40;;;0.98;;
23250;SDS011;11794;49.730;10.088;2023-07-20T12:41:06;3.50;;;1.08;;
23250;SDS011;11794;49.730;10.088;2023-07-20T12:43:32;3.10;;;1.10;;
23250;SDS011;11794;49.730;10.088;2023-07-20T12:45:58;4.57;;;1.00;;
23250;SDS011;11794;49.730;10.088;2023-07-20T12:48:24;3.58;;;0.90;;
23250;SDS011;11794;49.730;10.088;2023-07-20T12:50:50;3.90;;;1.05;;
23250;SDS011;11794;49.730;10.088;2023-07-20T12:53:16;3.47;;;0.90;;
23250;SDS011;11794;49.730;10.088;2023-07-20T12:55:41;2.95;;;0.90;;
23250;SDS011;11794;49.730;10.088;2023-07-20T12:58:07;3.50;;;1.10;;
23250;SDS011;11794;49.730;10.088;2023-07-20T13:00:33;4.95;;;1.02;;
23250;SDS011;11794;49.730;10.088;2023-07-20T13:02:59;4.07;;;1.23;;
23250;SDS011;11794;49.730;10.088;2023-07-20T13:05:25;4.27;;;1.20;;
23250;SDS011;11794;49.730;10.088;2023-07-20T13:07:50;4.32;;;1.48;;
23250;SDS011;11794;49.730;10.088;2023-07-20T13:10:16;4.60;;;1.00;;
23250;SDS011;11794;49.730;10.088;2023-07-20T13:12:43;3.97;;;1.10;;
23250;SDS011;11794;49.730;10.088;2023-07-20T13:15:09;3.30;;;1.17;;
23250;SDS011;11794;49.730;10.088;2023-07-20T13:17:35;3.93;;;1.30;;
23250;SDS011;11794;49.730;10.088;2023-07-20T13:20:03;4.13;;;1.20;;
23250;SDS011;11794;49.730;10.088;2023-07-20T13:22:32;11.07;;;1.20;;
23250;SDS011;11794;49.730;10.088;2023-07-20T13:24:59;3.45;;;1.10;;
23250;SDS011;11794;49.730;10.088;2023-07-20T13:27:24;3.72;;;1.20;;
23250;SDS011;11794;49.730;10.088;2023-07-20T13:29:53;4.10;;;1.33;;
23250;SDS011;11794;49.730;10.088;2023-07-20T13:32:18;3.67;;;1.10;;
23250;SDS011;11794;49.730;10.088;2023-07-20T13:34:44;5.40;;;1.35;;
23250;SDS011;11794;49.730;10.088;2023-07-20T13:37:10;4.47;;;1.30;;
23250;SDS011;11794;49.730;10.088;2023-07-20T13:39:37;3.67;;;1.30;;
23250;SDS011;11794;49.730;10.088;2023-07-20T13:42:03;4.60;;;1.13;;
23250;SDS011;11794;49.730;10.088;2023-07-20T13:44:33;4.70;;;1.42;;
23250;SDS011;11794;49.730;10.088;2023-07-20T13:46:59;4.07;;;1.30;;
23250;SDS011;11794;49.730;10.088;2023-07-20T13:49:26;3.67;;;1.02;;
23250;SDS011;11794;49.730;10.088;2023-07-20T13:51:51;4.40;;;1.00;;
23250;SDS011;11794;49.730;10.088;2023-07-20T13:54:17;3.90;;;1.20;;
23250;SDS011;11794;49.730;10.088;2023-07-20T13:56:42;3.47;;;1.10;;
23250;SDS011;11794;49.730;10.088;2023-07-20T13:59:08;3.67;;;1.10;;
23250;SDS011;11794;49.730;10.088;2023-07-20T14:01:33;3.13;;;0.90;;
23250;SDS011;11794;49.730;10.088;2023-07-20T14:04:00;3.65;;;0.90;;
23250;SDS011;11794;49.730;10.088;2023-07-20T14:06:29;4.38;;;1.20;;
23250;SDS011;11794;49.730;10.088;2023-07-20T14:08:55;4.03;;;1.23;;
23250;SDS011;11794;49.730;10.088;2023-07-20T14:11:20;3.90;;;1.40;;
23250;SDS011;11794;49.730;10.088;2023-07-20T14:13:46;3.17;;;1.00;;
23250;SDS011;11794;49.730;10.088;2023-07-20T14:16:11;3.17;;;1.10;;
23250;SDS011;11794;49.730;10.088;2023-07-20T14:18:37;3.70;;;1.10;;
23250;SDS011;11794;49.730;10.088;2023-07-20T14:21:02;3.70;;;1.02;;
23250;SDS011;11794;49.730;10.088;2023-07-20T14:23:30;3.80;;;1.20;;
23250;SDS011;11794;49.730;10.088;2023-07-20T14:25:55;5.25;;;0.90;;
23250;SDS011;11794;49.730;10.088;2023-07-20T14:28:21;4.60;;;1.00;;
23250;SDS011;11794;49.730;10.088;2023-07-20T14:30:46;3.45;;;0.90;;
23250;SDS011;11794;49.730;10.088;2023-07-20T14:33:12;4.20;;;1.20;;
23250;SDS011;11794;49.730;10.088;2023-07-20T14:35:38;3.88;;;1.00;;
23250;SDS011;11794;49.730;10.088;2023-07-20T14:38:03;3.03;;;0.90;;
23250;SDS011;11794;49.730;10.088;2023-07-20T14:40:29;3.57;;;1.20;;
23250;SDS011;11794;49.730;10.088;2023-07-20T14:42:55;3.57;;;1.10;;
23250;SDS011;11794;49.730;10.088;2023-07-20T14:45:21;4.15;;;0.90;;
23250;SDS011;11794;49.730;10.088;2023-07-20T14:47:46;4.60;;;1.00;;
23250;SDS011;11794;49.730;10.088;2023-07-20T14:50:18;3.08;;;1.00;;
23250;SDS011;11794;49.730;10.088;2023-07-20T14:52:44;3.20;;;1.00;;
23250;SDS011;11794;49.730;10.088;2023-07-20T14:55:09;4.10;;;0.90;;
23250;SDS011;11794;49.730;10.088;2023-07-20T14:57:35;4.03;;;1.10;;